Luminous Kobe-2 — JJ3868 — position and weather

sailwx.info

Track history (hours):
 
Tides and Currents Weather Stations Pressure Air Temp Water Temp Dewpoint Dewpoint Depression Visibility Wind Speed Wind Dir Waves Ship Positions

Luminous Kobe-2

Last reported at 2015-Sep-03 08:33 UTC. Time now 2015-Sep-03 08:52 UTC.
Position N 34°38' E 135°08'.

Length 105 m; draft 4.5 m.

Type: Passenger vessel. MMSI: 431000469.

Date/timePositionNaut miles runAvg speedWind from/ knotsBaromVisibWave heightAir tempDewpointWater temp
2015-Sep-03 08:33N 34°38' E 135°08'4 3.7
2015-Sep-03 07:23N 34°41' E 135°11'0 0.0
2015-Sep-03 06:29N 34°41' E 135°11'0 0.0
2015-Sep-03 05:29N 34°41' E 135°11'2 2.6
2015-Sep-03 04:33N 34°38' E 135°11'3 2.8
2015-Sep-03 03:33N 34°37' E 135°14'4 3.9
2015-Sep-03 02:25N 34°41' E 135°11'0 0.0
2015-Sep-03 01:31N 34°41' E 135°11'0 0.0
2015-Sep-03 00:31N 34°41' E 135°11'0 0.0
2015-Sep-02 23:31N 34°41' E 135°11'0 0.0
2015-Sep-02 22:31N 34°41' E 135°11'0 0.0
2015-Sep-02 21:25N 34°41' E 135°11'0 0.0
2015-Sep-02 20:31N 34°41' E 135°11'0 0.0
2015-Sep-02 19:25N 34°41' E 135°11'0 0.0
2015-Sep-02 18:31N 34°41' E 135°11'0 0.0
2015-Sep-02 17:25N 34°41' E 135°11'0 0.0
2015-Sep-02 16:31N 34°41' E 135°11'0 0.0
2015-Sep-02 15:31N 34°41' E 135°11'0 0.0
2015-Sep-02 14:31N 34°41' E 135°11'0 0.0
2015-Sep-02 13:13N 34°41' E 135°11'0 0.0
2015-Sep-02 12:31N 34°41' E 135°11'7 7.1
2015-Sep-02 11:33N 34°36' E 135°06'1 1.3
2015-Sep-02 10:34N 34°37' E 135°07'6 5.3
2015-Sep-02 09:30N 34°41' E 135°11'4 4.7
2015-Sep-02 08:33N 34°38' E 135°07'4 4.3
2015-Sep-02 07:31N 34°41' E 135°11'0 0.0
2015-Sep-02 06:31N 34°41' E 135°11'0 0.0
2015-Sep-02 05:31N 34°41' E 135°11'3 2.7
2015-Sep-02 04:33N 34°38' E 135°11'3 2.8
2015-Sep-02 03:33N 34°37' E 135°14'4 3.5
2015-Sep-02 02:24N 34°41' E 135°11'0 0.0
2015-Sep-02 01:30N 34°41' E 135°11'0 0.0
2015-Sep-02 00:30N 34°41' E 135°11'0 0.0
2015-Sep-01 23:24N 34°41' E 135°11'0 0.0
2015-Sep-01 22:30N 34°41' E 135°11'0 0.0
2015-Sep-01 21:30N 34°41' E 135°11'0 0.0
2015-Sep-01 20:30N 34°41' E 135°11'0 0.0
2015-Sep-01 19:30N 34°41' E 135°11'0 0.0
2015-Sep-01 18:24N 34°41' E 135°11'0 0.0
2015-Sep-01 17:30N 34°41' E 135°11'0 0.0
2015-Sep-01 16:30N 34°41' E 135°11'0 0.0
2015-Sep-01 15:24N 34°41' E 135°11'0 0.0
2015-Sep-01 14:30N 34°41' E 135°11'0 0.0
2015-Sep-01 13:24N 34°41' E 135°11'0 0.0
2015-Sep-01 12:30N 34°41' E 135°11'7 7.6
2015-Sep-01 11:33N 34°35' E 135°06'2 1.6
2015-Sep-01 10:33N 34°37' E 135°07'6 4.6
2015-Sep-01 09:20N 34°41' E 135°11'5 6.3
2015-Sep-01 08:33N 34°38' E 135°07'5 4.6
2015-Sep-01 07:30N 34°41' E 135°11'0 0.0
2015-Sep-01 06:30N 34°41' E 135°11'0 0.0
2015-Sep-01 05:24N 34°41' E 135°11'2 2.9
2015-Sep-01 04:33N 34°38' E 135°11'2 2.3
2015-Sep-01 03:33N 34°37' E 135°13'4 3.7
2015-Sep-01 02:29N 34°41' E 135°11'0 0.0
2015-Sep-01 01:29N 34°41' E 135°11'0 0.0
2015-Sep-01 00:29N 34°41' E 135°11'0 0.0
2015-Aug-31 23:29N 34°41' E 135°11'0 0.0
2015-Aug-31 22:23N 34°41' E 135°11'0 0.0
2015-Aug-31 21:29N 34°41' E 135°11'0 0.0
2015-Aug-31 20:29N 34°41' E 135°11'0 0.0
2015-Aug-31 19:29N 34°41' E 135°11'0 0.0
2015-Aug-31 18:29N 34°41' E 135°11'0 0.0
2015-Aug-31 17:29N 34°41' E 135°11'0 0.0
2015-Aug-31 16:23N 34°41' E 135°11'0 0.0
2015-Aug-31 15:29N 34°41' E 135°11'0 0.0
2015-Aug-31 14:29N 34°41' E 135°11'0 0.0
2015-Aug-31 13:29N 34°41' E 135°11'0 0.0
2015-Aug-31 12:29N 34°41' E 135°11'7 7.4
2015-Aug-31 11:33N 34°36' E 135°06'1 1.1
2015-Aug-31 10:33N 34°37' E 135°06'6 5.3
2015-Aug-31 09:27N 34°41' E 135°11'5 5.6
2015-Aug-31 08:33N 34°38' E 135°07'5 3.9
2015-Aug-31 07:17N 34°41' E 135°11'0 0.0
2015-Aug-31 06:17N 34°41' E 135°11'  
2015-Aug-27 03:33N 34°37' E 135°14'4 3.8
2015-Aug-27 02:28N 34°41' E 135°11'0 0.0
2015-Aug-27 01:28N 34°41' E 135°11'0 0.0
2015-Aug-27 00:28N 34°41' E 135°11'0 0.0
2015-Aug-26 23:34N 34°41' E 135°11'0 0.0
2015-Aug-26 22:28N 34°41' E 135°11'0 0.0
2015-Aug-26 21:16N 34°41' E 135°11'0 0.0
2015-Aug-26 20:28N 34°41' E 135°11'0 0.0
2015-Aug-26 19:28N 34°41' E 135°11'0 0.0
2015-Aug-26 18:22N 34°41' E 135°11'0 0.0
2015-Aug-26 17:28N 34°41' E 135°11'0 0.0
2015-Aug-26 16:28N 34°41' E 135°11'0 0.0
2015-Aug-26 15:22N 34°41' E 135°11'0 0.0
2015-Aug-26 14:34N 34°41' E 135°11'0 0.0
2015-Aug-26 13:28N 34°41' E 135°11'0 0.0
2015-Aug-26 12:28N 34°41' E 135°11'6 6.7
2015-Aug-26 11:33N 34°36' E 135°07'1 0.7
2015-Aug-26 10:33N 34°37' E 135°07'6 5.2
2015-Aug-26 09:29N 34°41' E 135°11'4 4.4
2015-Aug-26 08:33N 34°38' E 135°08'4 4.0
2015-Aug-26 07:31N 34°41' E 135°11'0 0.0
2015-Aug-26 06:31N 34°41' E 135°11'0 0.0
2015-Aug-26 05:31N 34°41' E 135°11'2 2.5
2015-Aug-26 04:33N 34°38' E 135°11'3 2.6
2015-Aug-26 03:33N 34°37' E 135°14'4 4.3
2015-Aug-26 02:31N 34°41' E 135°11'0 0.0
2015-Aug-26 01:31N 34°41' E 135°11'0 0.0
2015-Aug-26 00:31N 34°41' E 135°11'0 0.0
2015-Aug-25 23:25N 34°41' E 135°11'0 0.0
2015-Aug-25 22:31N 34°41' E 135°11'0 0.0
2015-Aug-25 21:31N 34°41' E 135°11'0 0.0
2015-Aug-25 20:31N 34°41' E 135°11'0 0.0
2015-Aug-25 19:25N 34°41' E 135°11'0 0.0
2015-Aug-25 18:25N 34°41' E 135°11'0 0.0
2015-Aug-25 17:25N 34°41' E 135°11'0 0.0
2015-Aug-25 16:31N 34°41' E 135°11'0 0.0
2015-Aug-25 15:31N 34°41' E 135°11'0 0.0
2015-Aug-25 14:25N 34°41' E 135°11'0 0.0
2015-Aug-25 13:31N 34°41' E 135°11'0 0.0
2015-Aug-25 12:31N 34°41' E 135°11'6 6.6
2015-Aug-25 11:33N 34°36' E 135°06'1 0.9
2015-Aug-25 10:33N 34°37' E 135°07'5 5.3
2015-Aug-25 09:33N 34°41' E 135°11'5 4.8
2015-Aug-25 08:33N 34°38' E 135°07'5 4.5
2015-Aug-25 07:30N 34°41' E 135°11'0 0.0
2015-Aug-25 06:24N 34°41' E 135°11'0 0.0
2015-Aug-25 05:30N 34°41' E 135°11'2 2.7
2015-Aug-25 04:33N 34°38' E 135°11'2 2.2
2015-Aug-25 03:33N 34°37' E 135°13'4 3.5
2015-Aug-25 02:28N 34°41' E 135°11'0 0.0
2015-Aug-25 01:28N 34°41' E 135°11'0 0.0
2015-Aug-25 00:28N 34°41' E 135°11'0 0.0
2015-Aug-24 23:22N 34°41' E 135°11'0 0.0
2015-Aug-24 22:28N 34°41' E 135°11'0 0.0
2015-Aug-24 21:22N 34°41' E 135°11'0 0.0
2015-Aug-24 20:28N 34°41' E 135°11'0 0.0
2015-Aug-24 19:28N 34°41' E 135°11'0 0.0
2015-Aug-24 18:28N 34°41' E 135°11'0 0.0
2015-Aug-24 17:28N 34°41' E 135°11'0 0.0
2015-Aug-24 16:28N 34°41' E 135°11'0 0.0
2015-Aug-24 15:28N 34°41' E 135°11'0 0.0
2015-Aug-24 14:28N 34°41' E 135°11'0 0.0
2015-Aug-24 13:28N 34°41' E 135°11'0 0.0
2015-Aug-24 12:28N 34°41' E 135°11'6 7.0
2015-Aug-24 11:33N 34°36' E 135°07'1 0.8
2015-Aug-24 10:33N 34°37' E 135°07'6 5.3
2015-Aug-24 09:28N 34°41' E 135°11'5 5.0
2015-Aug-24 08:33N 34°38' E 135°07'  
Track history (hours):
 
Tides and Currents Weather Stations Pressure Air Temp Water Temp Dewpoint Dewpoint Depression Visibility Wind Speed Wind Dir Waves Ship Positions

Luminous Kobe-2

Last reported at 2015-Sep-03 08:33 UTC. Time now 2015-Sep-03 08:52 UTC.
Position N 34°38' E 135°08'.

Length 105 m; draft 4.5 m.

Type: Passenger vessel. MMSI: 431000469.

Date/timePositionNaut miles runAvg speedWind from/ knotsBaromVisibWave heightAir tempDewpointWater temp
2015-Sep-03 08:33N 34°38' E 135°08'4 3.7
2015-Sep-03 07:23N 34°41' E 135°11'0 0.0
2015-Sep-03 06:29N 34°41' E 135°11'0 0.0
2015-Sep-03 05:29N 34°41' E 135°11'2 2.6
2015-Sep-03 04:33N 34°38' E 135°11'3 2.8
2015-Sep-03 03:33N 34°37' E 135°14'4 3.9
2015-Sep-03 02:25N 34°41' E 135°11'0 0.0
2015-Sep-03 01:31N 34°41' E 135°11'0 0.0
2015-Sep-03 00:31N 34°41' E 135°11'0 0.0
2015-Sep-02 23:31N 34°41' E 135°11'0 0.0
2015-Sep-02 22:31N 34°41' E 135°11'0 0.0
2015-Sep-02 21:25N 34°41' E 135°11'0 0.0
2015-Sep-02 20:31N 34°41' E 135°11'0 0.0
2015-Sep-02 19:25N 34°41' E 135°11'0 0.0
2015-Sep-02 18:31N 34°41' E 135°11'0 0.0
2015-Sep-02 17:25N 34°41' E 135°11'0 0.0
2015-Sep-02 16:31N 34°41' E 135°11'0 0.0
2015-Sep-02 15:31N 34°41' E 135°11'0 0.0
2015-Sep-02 14:31N 34°41' E 135°11'0 0.0
2015-Sep-02 13:13N 34°41' E 135°11'0 0.0
2015-Sep-02 12:31N 34°41' E 135°11'7 7.1
2015-Sep-02 11:33N 34°36' E 135°06'1 1.3
2015-Sep-02 10:34N 34°37' E 135°07'6 5.3
2015-Sep-02 09:30N 34°41' E 135°11'4 4.7
2015-Sep-02 08:33N 34°38' E 135°07'4 4.3
2015-Sep-02 07:31N 34°41' E 135°11'0 0.0
2015-Sep-02 06:31N 34°41' E 135°11'0 0.0
2015-Sep-02 05:31N 34°41' E 135°11'3 2.7
2015-Sep-02 04:33N 34°38' E 135°11'3 2.8
2015-Sep-02 03:33N 34°37' E 135°14'4 3.5
2015-Sep-02 02:24N 34°41' E 135°11'0 0.0
2015-Sep-02 01:30N 34°41' E 135°11'0 0.0
2015-Sep-02 00:30N 34°41' E 135°11'0 0.0
2015-Sep-01 23:24N 34°41' E 135°11'0 0.0
2015-Sep-01 22:30N 34°41' E 135°11'0 0.0
2015-Sep-01 21:30N 34°41' E 135°11'0 0.0
2015-Sep-01 20:30N 34°41' E 135°11'0 0.0
2015-Sep-01 19:30N 34°41' E 135°11'0 0.0
2015-Sep-01 18:24N 34°41' E 135°11'0 0.0
2015-Sep-01 17:30N 34°41' E 135°11'0 0.0
2015-Sep-01 16:30N 34°41' E 135°11'0 0.0
2015-Sep-01 15:24N 34°41' E 135°11'0 0.0
2015-Sep-01 14:30N 34°41' E 135°11'0 0.0
2015-Sep-01 13:24N 34°41' E 135°11'0 0.0
2015-Sep-01 12:30N 34°41' E 135°11'7 7.6
2015-Sep-01 11:33N 34°35' E 135°06'2 1.6
2015-Sep-01 10:33N 34°37' E 135°07'6 4.6
2015-Sep-01 09:20N 34°41' E 135°11'5 6.3
2015-Sep-01 08:33N 34°38' E 135°07'5 4.6
2015-Sep-01 07:30N 34°41' E 135°11'0 0.0
2015-Sep-01 06:30N 34°41' E 135°11'0 0.0
2015-Sep-01 05:24N 34°41' E 135°11'2 2.9
2015-Sep-01 04:33N 34°38' E 135°11'2 2.3
2015-Sep-01 03:33N 34°37' E 135°13'4 3.7
2015-Sep-01 02:29N 34°41' E 135°11'0 0.0
2015-Sep-01 01:29N 34°41' E 135°11'0 0.0
2015-Sep-01 00:29N 34°41' E 135°11'0 0.0
2015-Aug-31 23:29N 34°41' E 135°11'0 0.0
2015-Aug-31 22:23N 34°41' E 135°11'0 0.0
2015-Aug-31 21:29N 34°41' E 135°11'0 0.0
2015-Aug-31 20:29N 34°41' E 135°11'0 0.0
2015-Aug-31 19:29N 34°41' E 135°11'0 0.0
2015-Aug-31 18:29N 34°41' E 135°11'0 0.0
2015-Aug-31 17:29N 34°41' E 135°11'0 0.0
2015-Aug-31 16:23N 34°41' E 135°11'0 0.0
2015-Aug-31 15:29N 34°41' E 135°11'0 0.0
2015-Aug-31 14:29N 34°41' E 135°11'0 0.0
2015-Aug-31 13:29N 34°41' E 135°11'0 0.0
2015-Aug-31 12:29N 34°41' E 135°11'7 7.4
2015-Aug-31 11:33N 34°36' E 135°06'1 1.1
2015-Aug-31 10:33N 34°37' E 135°06'6 5.3
2015-Aug-31 09:27N 34°41' E 135°11'5 5.6
2015-Aug-31 08:33N 34°38' E 135°07'5 3.9
2015-Aug-31 07:17N 34°41' E 135°11'0 0.0
2015-Aug-31 06:17N 34°41' E 135°11'  
2015-Aug-27 03:33N 34°37' E 135°14'4 3.8
2015-Aug-27 02:28N 34°41' E 135°11'0 0.0
2015-Aug-27 01:28N 34°41' E 135°11'0 0.0
2015-Aug-27 00:28N 34°41' E 135°11'0 0.0
2015-Aug-26 23:34N 34°41' E 135°11'0 0.0
2015-Aug-26 22:28N 34°41' E 135°11'0 0.0
2015-Aug-26 21:16N 34°41' E 135°11'0 0.0
2015-Aug-26 20:28N 34°41' E 135°11'0 0.0
2015-Aug-26 19:28N 34°41' E 135°11'0 0.0
2015-Aug-26 18:22N 34°41' E 135°11'0 0.0
2015-Aug-26 17:28N 34°41' E 135°11'0 0.0
2015-Aug-26 16:28N 34°41' E 135°11'0 0.0
2015-Aug-26 15:22N 34°41' E 135°11'0 0.0
2015-Aug-26 14:34N 34°41' E 135°11'0 0.0
2015-Aug-26 13:28N 34°41' E 135°11'0 0.0
2015-Aug-26 12:28N 34°41' E 135°11'6 6.7
2015-Aug-26 11:33N 34°36' E 135°07'1 0.7
2015-Aug-26 10:33N 34°37' E 135°07'6 5.2
2015-Aug-26 09:29N 34°41' E 135°11'4 4.4
2015-Aug-26 08:33N 34°38' E 135°08'4 4.0
2015-Aug-26 07:31N 34°41' E 135°11'0 0.0
2015-Aug-26 06:31N 34°41' E 135°11'0 0.0
2015-Aug-26 05:31N 34°41' E 135°11'2 2.5
2015-Aug-26 04:33N 34°38' E 135°11'3 2.6
2015-Aug-26 03:33N 34°37' E 135°14'4 4.3
2015-Aug-26 02:31N 34°41' E 135°11'0 0.0
2015-Aug-26 01:31N 34°41' E 135°11'0 0.0
2015-Aug-26 00:31N 34°41' E 135°11'0 0.0
2015-Aug-25 23:25N 34°41' E 135°11'0 0.0
2015-Aug-25 22:31N 34°41' E 135°11'0 0.0
2015-Aug-25 21:31N 34°41' E 135°11'0 0.0
2015-Aug-25 20:31N 34°41' E 135°11'0 0.0
2015-Aug-25 19:25N 34°41' E 135°11'0 0.0
2015-Aug-25 18:25N 34°41' E 135°11'0 0.0
2015-Aug-25 17:25N 34°41' E 135°11'0 0.0
2015-Aug-25 16:31N 34°41' E 135°11'0 0.0
2015-Aug-25 15:31N 34°41' E 135°11'0 0.0
2015-Aug-25 14:25N 34°41' E 135°11'0 0.0
2015-Aug-25 13:31N 34°41' E 135°11'0 0.0
2015-Aug-25 12:31N 34°41' E 135°11'6 6.6
2015-Aug-25 11:33N 34°36' E 135°06'1 0.9
2015-Aug-25 10:33N 34°37' E 135°07'5 5.3
2015-Aug-25 09:33N 34°41' E 135°11'5 4.8
2015-Aug-25 08:33N 34°38' E 135°07'5 4.5
2015-Aug-25 07:30N 34°41' E 135°11'0 0.0
2015-Aug-25 06:24N 34°41' E 135°11'0 0.0
2015-Aug-25 05:30N 34°41' E 135°11'2 2.7
2015-Aug-25 04:33N 34°38' E 135°11'2 2.2
2015-Aug-25 03:33N 34°37' E 135°13'4 3.5
2015-Aug-25 02:28N 34°41' E 135°11'0 0.0
2015-Aug-25 01:28N 34°41' E 135°11'0 0.0
2015-Aug-25 00:28N 34°41' E 135°11'0 0.0
2015-Aug-24 23:22N 34°41' E 135°11'0 0.0
2015-Aug-24 22:28N 34°41' E 135°11'0 0.0
2015-Aug-24 21:22N 34°41' E 135°11'0 0.0
2015-Aug-24 20:28N 34°41' E 135°11'0 0.0
2015-Aug-24 19:28N 34°41' E 135°11'0 0.0
2015-Aug-24 18:28N 34°41' E 135°11'0 0.0
2015-Aug-24 17:28N 34°41' E 135°11'0 0.0
2015-Aug-24 16:28N 34°41' E 135°11'0 0.0
2015-Aug-24 15:28N 34°41' E 135°11'0 0.0
2015-Aug-24 14:28N 34°41' E 135°11'0 0.0
2015-Aug-24 13:28N 34°41' E 135°11'0 0.0
2015-Aug-24 12:28N 34°41' E 135°11'6 7.0
2015-Aug-24 11:33N 34°36' E 135°07'1 0.8
2015-Aug-24 10:33N 34°37' E 135°07'6 5.3
2015-Aug-24 09:28N 34°41' E 135°11'5 5.0
2015-Aug-24 08:33N 34°38' E 135°07'  

Dump ship's entire track history